sensor_id;sensor_type;location;lat;lon;timestamp;P1;durP1;ratioP1;P2;durP2;ratioP2
19221;SDS011;9745;50.828;4.378;2024-02-26T00:01:52;2.90;;;1.50;;
19221;SDS011;9745;50.828;4.378;2024-02-26T00:04:18;5.60;;;1.83;;
19221;SDS011;9745;50.828;4.378;2024-02-26T00:06:45;4.97;;;1.60;;
19221;SDS011;9745;50.828;4.378;2024-02-26T00:09:11;4.53;;;1.60;;
19221;SDS011;9745;50.828;4.378;2024-02-26T00:11:37;4.13;;;2.03;;
19221;SDS011;9745;50.828;4.378;2024-02-26T00:14:04;6.63;;;1.90;;
19221;SDS011;9745;50.828;4.378;2024-02-26T00:16:30;3.93;;;1.50;;
19221;SDS011;9745;50.828;4.378;2024-02-26T00:18:56;3.50;;;1.70;;
19221;SDS011;9745;50.828;4.378;2024-02-26T00:21:22;2.10;;;1.53;;
19221;SDS011;9745;50.828;4.378;2024-02-26T00:23:52;3.87;;;1.80;;
19221;SDS011;9745;50.828;4.378;2024-02-26T00:26:18;5.27;;;1.50;;
19221;SDS011;9745;50.828;4.378;2024-02-26T00:28:44;2.53;;;1.50;;
19221;SDS011;9745;50.828;4.378;2024-02-26T00:31:10;3.33;;;1.70;;
19221;SDS011;9745;50.828;4.378;2024-02-26T00:33:36;3.43;;;1.40;;
19221;SDS011;9745;50.828;4.378;2024-02-26T00:36:03;4.63;;;1.70;;
19221;SDS011;9745;50.828;4.378;2024-02-26T00:38:29;3.47;;;1.80;;
19221;SDS011;9745;50.828;4.378;2024-02-26T00:40:55;4.73;;;1.50;;
19221;SDS011;9745;50.828;4.378;2024-02-26T00:43:21;2.53;;;1.67;;
19221;SDS011;9745;50.828;4.378;2024-02-26T00:45:47;2.87;;;1.67;;
19221;SDS011;9745;50.828;4.378;2024-02-26T00:48:13;5.63;;;1.70;;
19221;SDS011;9745;50.828;4.378;2024-02-26T00:50:39;6.43;;;2.03;;
19221;SDS011;9745;50.828;4.378;2024-02-26T00:53:05;3.23;;;1.60;;
19221;SDS011;9745;50.828;4.378;2024-02-26T00:55:31;4.87;;;1.47;;
19221;SDS011;9745;50.828;4.378;2024-02-26T00:57:57;3.67;;;1.50;;
19221;SDS011;9745;50.828;4.378;2024-02-26T01:00:23;3.63;;;1.70;;
19221;SDS011;9745;50.828;4.378;2024-02-26T01:02:49;5.07;;;1.57;;
19221;SDS011;9745;50.828;4.378;2024-02-26T01:05:15;1.80;;;1.50;;
19221;SDS011;9745;50.828;4.378;2024-02-26T01:07:41;3.23;;;1.87;;
19221;SDS011;9745;50.828;4.378;2024-02-26T01:10:07;2.50;;;1.30;;
19221;SDS011;9745;50.828;4.378;2024-02-26T01:12:34;3.17;;;1.50;;
19221;SDS011;9745;50.828;4.378;2024-02-26T01:15:03;4.50;;;1.77;;
19221;SDS011;9745;50.828;4.378;2024-02-26T01:17:29;2.57;;;1.50;;
19221;SDS011;9745;50.828;4.378;2024-02-26T01:19:55;3.77;;;1.63;;
19221;SDS011;9745;50.828;4.378;2024-02-26T01:22:22;14.00;;;2.00;;
19221;SDS011;9745;50.828;4.378;2024-02-26T01:24:48;1.87;;;1.20;;
19221;SDS011;9745;50.828;4.378;2024-02-26T01:27:14;4.07;;;1.70;;
19221;SDS011;9745;50.828;4.378;2024-02-26T01:29:40;2.73;;;1.67;;
19221;SDS011;9745;50.828;4.378;2024-02-26T01:32:06;2.00;;;1.50;;
19221;SDS011;9745;50.828;4.378;2024-02-26T01:34:32;4.60;;;1.77;;
19221;SDS011;9745;50.828;4.378;2024-02-26T01:36:58;2.53;;;1.47;;
19221;SDS011;9745;50.828;4.378;2024-02-26T01:39:25;3.60;;;1.57;;
19221;SDS011;9745;50.828;4.378;2024-02-26T01:41:53;2.47;;;1.40;;
19221;SDS011;9745;50.828;4.378;2024-02-26T01:44:20;3.90;;;1.67;;
19221;SDS011;9745;50.828;4.378;2024-02-26T01:46:46;2.50;;;1.40;;
19221;SDS011;9745;50.828;4.378;2024-02-26T01:49:12;4.30;;;1.70;;
19221;SDS011;9745;50.828;4.378;2024-02-26T01:54:14;3.27;;;1.47;;
19221;SDS011;9745;50.828;4.378;2024-02-26T01:56:40;1.97;;;1.40;;
19221;SDS011;9745;50.828;4.378;2024-02-26T01:59:06;3.03;;;1.07;;
19221;SDS011;9745;50.828;4.378;2024-02-26T02:01:33;2.60;;;1.20;;
19221;SDS011;9745;50.828;4.378;2024-02-26T02:04:00;8.67;;;1.90;;
19221;SDS011;9745;50.828;4.378;2024-02-26T02:06:26;3.27;;;1.67;;
19221;SDS011;9745;50.828;4.378;2024-02-26T02:08:56;4.10;;;1.37;;
19221;SDS011;9745;50.828;4.378;2024-02-26T02:11:22;3.33;;;1.23;;
19221;SDS011;9745;50.828;4.378;2024-02-26T02:13:48;2.40;;;1.50;;
19221;SDS011;9745;50.828;4.378;2024-02-26T02:16:14;4.83;;;1.33;;
19221;SDS011;9745;50.828;4.378;2024-02-26T02:18:40;2.23;;;1.33;;
19221;SDS011;9745;50.828;4.378;2024-02-26T02:21:06;4.17;;;1.40;;
19221;SDS011;9745;50.828;4.378;2024-02-26T02:23:32;2.57;;;1.30;;
19221;SDS011;9745;50.828;4.378;2024-02-26T02:25:58;4.30;;;1.57;;
19221;SDS011;9745;50.828;4.378;2024-02-26T02:28:25;3.07;;;1.70;;
19221;SDS011;9745;50.828;4.378;2024-02-26T02:30:51;2.20;;;1.20;;
19221;SDS011;9745;50.828;4.378;2024-02-26T02:33:17;1.70;;;1.40;;
19221;SDS011;9745;50.828;4.378;2024-02-26T02:35:43;1.77;;;0.97;;
19221;SDS011;9745;50.828;4.378;2024-02-26T02:38:10;1.33;;;1.10;;
19221;SDS011;9745;50.828;4.378;2024-02-26T02:40:36;2.87;;;1.13;;
19221;SDS011;9745;50.828;4.378;2024-02-26T02:43:02;1.80;;;1.27;;
19221;SDS011;9745;50.828;4.378;2024-02-26T02:45:29;4.50;;;1.30;;
19221;SDS011;9745;50.828;4.378;2024-02-26T02:47:55;2.13;;;1.30;;
19221;SDS011;9745;50.828;4.378;2024-02-26T02:50:21;2.50;;;1.10;;
19221;SDS011;9745;50.828;4.378;2024-02-26T02:52:47;6.60;;;1.47;;
19221;SDS011;9745;50.828;4.378;2024-02-26T02:55:15;1.90;;;1.27;;
19221;SDS011;9745;50.828;4.378;2024-02-26T02:57:41;3.93;;;1.40;;
19221;SDS011;9745;50.828;4.378;2024-02-26T03:00:10;2.57;;;1.33;;
19221;SDS011;9745;50.828;4.378;2024-02-26T03:02:36;2.80;;;1.30;;
19221;SDS011;9745;50.828;4.378;2024-02-26T03:05:03;4.00;;;1.40;;
19221;SDS011;9745;50.828;4.378;2024-02-26T03:07:29;2.73;;;1.60;;
19221;SDS011;9745;50.828;4.378;2024-02-26T03:09:55;1.40;;;1.30;;
19221;SDS011;9745;50.828;4.378;2024-02-26T03:12:21;6.33;;;1.53;;
19221;SDS011;9745;50.828;4.378;2024-02-26T03:14:47;2.60;;;1.30;;
19221;SDS011;9745;50.828;4.378;2024-02-26T03:17:13;1.53;;;1.43;;
19221;SDS011;9745;50.828;4.378;2024-02-26T03:19:39;5.70;;;1.90;;
19221;SDS011;9745;50.828;4.378;2024-02-26T03:22:05;3.70;;;1.23;;
19221;SDS011;9745;50.828;4.378;2024-02-26T03:24:31;4.33;;;1.77;;
19221;SDS011;9745;50.828;4.378;2024-02-26T03:26:57;2.43;;;1.73;;
19221;SDS011;9745;50.828;4.378;2024-02-26T03:29:23;1.73;;;1.37;;
19221;SDS011;9745;50.828;4.378;2024-02-26T03:31:50;2.40;;;1.60;;
19221;SDS011;9745;50.828;4.378;2024-02-26T03:34:16;2.47;;;1.53;;
19221;SDS011;9745;50.828;4.378;2024-02-26T03:36:43;2.00;;;1.53;;
19221;SDS011;9745;50.828;4.378;2024-02-26T03:39:10;3.83;;;1.47;;
19221;SDS011;9745;50.828;4.378;2024-02-26T03:41:36;3.93;;;1.53;;
19221;SDS011;9745;50.828;4.378;2024-02-26T03:44:02;1.90;;;1.40;;
19221;SDS011;9745;50.828;4.378;2024-02-26T03:46:28;3.93;;;1.77;;
19221;SDS011;9745;50.828;4.378;2024-02-26T03:48:54;1.97;;;1.50;;
19221;SDS011;9745;50.828;4.378;2024-02-26T03:51:20;3.33;;;1.70;;
19221;SDS011;9745;50.828;4.378;2024-02-26T03:53:46;4.83;;;1.80;;
19221;SDS011;9745;50.828;4.378;2024-02-26T03:56:12;2.60;;;1.97;;
19221;SDS011;9745;50.828;4.378;2024-02-26T03:58:38;3.37;;;1.60;;
19221;SDS011;9745;50.828;4.378;2024-02-26T04:01:06;3.27;;;1.63;;
19221;SDS011;9745;50.828;4.378;2024-02-26T04:03:32;2.17;;;1.80;;
19221;SDS011;9745;50.828;4.378;2024-02-26T04:05:58;3.33;;;2.07;;
19221;SDS011;9745;50.828;4.378;2024-02-26T04:08:24;4.47;;;2.10;;
19221;SDS011;9745;50.828;4.378;2024-02-26T04:10:50;3.73;;;1.93;;
19221;SDS011;9745;50.828;4.378;2024-02-26T04:13:17;3.97;;;2.27;;
19221;SDS011;9745;50.828;4.378;2024-02-26T04:15:43;6.00;;;2.30;;
19221;SDS011;9745;50.828;4.378;2024-02-26T04:18:09;5.37;;;2.30;;
19221;SDS011;9745;50.828;4.378;2024-02-26T04:20:35;6.93;;;2.63;;
19221;SDS011;9745;50.828;4.378;2024-02-26T04:23:02;3.83;;;2.90;;
19221;SDS011;9745;50.828;4.378;2024-02-26T04:25:28;5.13;;;2.50;;
19221;SDS011;9745;50.828;4.378;2024-02-26T04:27:54;10.63;;;3.50;;
19221;SDS011;9745;50.828;4.378;2024-02-26T04:30:20;7.20;;;2.97;;
19221;SDS011;9745;50.828;4.378;2024-02-26T04:32:46;7.40;;;3.57;;
19221;SDS011;9745;50.828;4.378;2024-02-26T04:35:12;5.30;;;3.67;;
19221;SDS011;9745;50.828;4.378;2024-02-26T04:37:38;6.77;;;4.00;;
19221;SDS011;9745;50.828;4.378;2024-02-26T04:40:04;8.63;;;4.43;;
19221;SDS011;9745;50.828;4.378;2024-02-26T04:42:31;7.20;;;4.07;;
19221;SDS011;9745;50.828;4.378;2024-02-26T04:44:57;6.27;;;4.57;;
19221;SDS011;9745;50.828;4.378;2024-02-26T04:47:22;5.60;;;4.57;;
19221;SDS011;9745;50.828;4.378;2024-02-26T04:49:49;8.37;;;4.63;;
19221;SDS011;9745;50.828;4.378;2024-02-26T04:52:15;6.47;;;4.57;;
19221;SDS011;9745;50.828;4.378;2024-02-26T04:54:41;5.90;;;4.60;;
19221;SDS011;9745;50.828;4.378;2024-02-26T04:57:07;14.87;;;4.90;;
19221;SDS011;9745;50.828;4.378;2024-02-26T04:59:33;5.60;;;4.40;;
19221;SDS011;9745;50.828;4.378;2024-02-26T05:01:59;6.83;;;4.57;;
19221;SDS011;9745;50.828;4.378;2024-02-26T05:04:25;8.23;;;4.77;;
19221;SDS011;9745;50.828;4.378;2024-02-26T05:06:51;7.17;;;4.80;;
19221;SDS011;9745;50.828;4.378;2024-02-26T05:09:18;7.63;;;4.77;;
19221;SDS011;9745;50.828;4.378;2024-02-26T05:11:44;9.27;;;5.63;;
19221;SDS011;9745;50.828;4.378;2024-02-26T05:14:10;8.27;;;5.90;;
19221;SDS011;9745;50.828;4.378;2024-02-26T05:16:36;7.83;;;5.20;;
19221;SDS011;9745;50.828;4.378;2024-02-26T05:19:02;6.97;;;5.57;;
19221;SDS011;9745;50.828;4.378;2024-02-26T05:21:29;14.77;;;6.07;;
19221;SDS011;9745;50.828;4.378;2024-02-26T05:23:54;11.70;;;6.83;;
19221;SDS011;9745;50.828;4.378;2024-02-26T05:26:21;9.40;;;6.47;;
19221;SDS011;9745;50.828;4.378;2024-02-26T05:28:47;9.40;;;6.97;;
19221;SDS011;9745;50.828;4.378;2024-02-26T05:31:13;11.13;;;7.07;;
19221;SDS011;9745;50.828;4.378;2024-02-26T05:33:39;10.40;;;7.23;;
19221;SDS011;9745;50.828;4.378;2024-02-26T05:36:05;11.30;;;8.20;;
19221;SDS011;9745;50.828;4.378;2024-02-26T05:38:31;12.53;;;8.70;;
19221;SDS011;9745;50.828;4.378;2024-02-26T05:40:58;12.83;;;8.80;;
19221;SDS011;9745;50.828;4.378;2024-02-26T05:43:24;13.10;;;9.50;;
19221;SDS011;9745;50.828;4.378;2024-02-26T05:45:50;13.67;;;9.43;;
19221;SDS011;9745;50.828;4.378;2024-02-26T05:48:16;14.73;;;10.93;;
19221;SDS011;9745;50.828;4.378;2024-02-26T05:50:44;16.77;;;10.40;;
19221;SDS011;9745;50.828;4.378;2024-02-26T05:53:10;20.27;;;11.83;;
19221;SDS011;9745;50.828;4.378;2024-02-26T05:55:36;17.70;;;11.73;;
19221;SDS011;9745;50.828;4.378;2024-02-26T05:58:02;20.43;;;12.60;;
19221;SDS011;9745;50.828;4.378;2024-02-26T06:00:28;20.17;;;12.07;;
19221;SDS011;9745;50.828;4.378;2024-02-26T06:02:54;19.70;;;13.30;;
19221;SDS011;9745;50.828;4.378;2024-02-26T06:05:20;18.07;;;12.83;;
19221;SDS011;9745;50.828;4.378;2024-02-26T06:07:46;19.40;;;13.13;;
19221;SDS011;9745;50.828;4.378;2024-02-26T06:10:12;20.97;;;13.23;;
19221;SDS011;9745;50.828;4.378;2024-02-26T06:12:39;18.70;;;13.17;;
19221;SDS011;9745;50.828;4.378;2024-02-26T06:15:05;20.10;;;13.37;;
19221;SDS011;9745;50.828;4.378;2024-02-26T06:17:31;21.00;;;13.73;;
19221;SDS011;9745;50.828;4.378;2024-02-26T06:19:58;20.83;;;13.53;;
19221;SDS011;9745;50.828;4.378;2024-02-26T06:22:24;17.60;;;13.73;;
19221;SDS011;9745;50.828;4.378;2024-02-26T06:24:50;21.47;;;13.00;;
19221;SDS011;9745;50.828;4.378;2024-02-26T06:27:16;18.63;;;13.17;;
19221;SDS011;9745;50.828;4.378;2024-02-26T06:29:42;19.87;;;12.60;;
19221;SDS011;9745;50.828;4.378;2024-02-26T06:32:08;17.97;;;13.33;;
19221;SDS011;9745;50.828;4.378;2024-02-26T06:34:34;16.27;;;13.23;;
19221;SDS011;9745;50.828;4.378;2024-02-26T06:37:00;16.70;;;12.77;;
19221;SDS011;9745;50.828;4.378;2024-02-26T06:39:28;22.63;;;13.07;;
19221;SDS011;9745;50.828;4.378;2024-02-26T06:41:54;17.00;;;13.60;;
19221;SDS011;9745;50.828;4.378;2024-02-26T06:44:25;18.00;;;13.10;;
19221;SDS011;9745;50.828;4.378;2024-02-26T06:46:54;21.53;;;13.27;;
19221;SDS011;9745;50.828;4.378;2024-02-26T06:49:20;18.07;;;13.53;;
19221;SDS011;9745;50.828;4.378;2024-02-26T06:51:46;21.40;;;13.97;;
19221;SDS011;9745;50.828;4.378;2024-02-26T06:54:12;16.17;;;12.33;;
19221;SDS011;9745;50.828;4.378;2024-02-26T06:56:38;18.47;;;12.90;;
19221;SDS011;9745;50.828;4.378;2024-02-26T06:59:04;16.77;;;12.97;;
19221;SDS011;9745;50.828;4.378;2024-02-26T07:01:30;19.33;;;14.33;;
19221;SDS011;9745;50.828;4.378;2024-02-26T07:03:56;17.83;;;13.40;;
19221;SDS011;9745;50.828;4.378;2024-02-26T07:06:22;17.67;;;13.33;;
19221;SDS011;9745;50.828;4.378;2024-02-26T07:08:48;18.77;;;13.93;;
19221;SDS011;9745;50.828;4.378;2024-02-26T07:11:14;21.07;;;14.17;;
19221;SDS011;9745;50.828;4.378;2024-02-26T07:13:40;19.87;;;14.40;;
19221;SDS011;9745;50.828;4.378;2024-02-26T07:16:08;18.97;;;14.47;;
19221;SDS011;9745;50.828;4.378;2024-02-26T07:18:35;18.67;;;13.77;;
19221;SDS011;9745;50.828;4.378;2024-02-26T07:21:02;19.17;;;14.70;;
19221;SDS011;9745;50.828;4.378;2024-02-26T07:23:28;19.30;;;14.93;;
19221;SDS011;9745;50.828;4.378;2024-02-26T07:25:54;19.53;;;14.23;;
19221;SDS011;9745;50.828;4.378;2024-02-26T07:28:20;20.03;;;13.93;;
19221;SDS011;9745;50.828;4.378;2024-02-26T07:30:46;17.50;;;13.33;;
19221;SDS011;9745;50.828;4.378;2024-02-26T07:33:12;18.43;;;13.30;;
19221;SDS011;9745;50.828;4.378;2024-02-26T07:35:38;20.47;;;13.83;;
19221;SDS011;9745;50.828;4.378;2024-02-26T07:38:04;19.70;;;13.87;;
19221;SDS011;9745;50.828;4.378;2024-02-26T07:40:31;19.33;;;14.00;;
19221;SDS011;9745;50.828;4.378;2024-02-26T07:42:56;21.87;;;14.60;;
19221;SDS011;9745;50.828;4.378;2024-02-26T07:45:22;20.70;;;15.27;;
19221;SDS011;9745;50.828;4.378;2024-02-26T07:47:48;19.53;;;14.23;;
19221;SDS011;9745;50.828;4.378;2024-02-26T07:50:16;17.20;;;13.70;;
19221;SDS011;9745;50.828;4.378;2024-02-26T07:52:42;17.83;;;13.83;;
19221;SDS011;9745;50.828;4.378;2024-02-26T07:55:08;18.87;;;14.03;;
19221;SDS011;9745;50.828;4.378;2024-02-26T07:57:34;18.80;;;13.30;;
19221;SDS011;9745;50.828;4.378;2024-02-26T08:00:01;19.07;;;12.80;;
19221;SDS011;9745;50.828;4.378;2024-02-26T08:02:27;17.60;;;13.27;;
19221;SDS011;9745;50.828;4.378;2024-02-26T08:04:54;20.97;;;13.00;;
19221;SDS011;9745;50.828;4.378;2024-02-26T08:07:19;16.70;;;12.80;;
19221;SDS011;9745;50.828;4.378;2024-02-26T08:09:46;18.83;;;13.40;;
19221;SDS011;9745;50.828;4.378;2024-02-26T08:12:12;16.57;;;12.57;;
19221;SDS011;9745;50.828;4.378;2024-02-26T08:14:38;17.03;;;12.70;;
19221;SDS011;9745;50.828;4.378;2024-02-26T08:17:04;15.43;;;12.50;;
19221;SDS011;9745;50.828;4.378;2024-02-26T08:19:30;16.67;;;12.27;;
19221;SDS011;9745;50.828;4.378;2024-02-26T08:21:56;17.13;;;12.53;;
19221;SDS011;9745;50.828;4.378;2024-02-26T08:24:22;15.70;;;11.80;;
19221;SDS011;9745;50.828;4.378;2024-02-26T08:26:48;14.70;;;11.93;;
19221;SDS011;9745;50.828;4.378;2024-02-26T08:29:14;15.87;;;12.40;;
19221;SDS011;9745;50.828;4.378;2024-02-26T08:31:40;14.63;;;11.90;;
19221;SDS011;9745;50.828;4.378;2024-02-26T08:34:06;13.50;;;10.83;;
19221;SDS011;9745;50.828;4.378;2024-02-26T08:36:33;23.40;;;11.53;;
19221;SDS011;9745;50.828;4.378;2024-02-26T08:39:00;16.03;;;11.73;;
19221;SDS011;9745;50.828;4.378;2024-02-26T08:41:26;14.10;;;10.67;;
19221;SDS011;9745;50.828;4.378;2024-02-26T08:43:52;15.00;;;11.93;;
19221;SDS011;9745;50.828;4.378;2024-02-26T08:46:18;14.47;;;11.63;;
19221;SDS011;9745;50.828;4.378;2024-02-26T08:48:44;15.07;;;11.47;;
19221;SDS011;9745;50.828;4.378;2024-02-26T08:51:10;15.13;;;11.33;;
19221;SDS011;9745;50.828;4.378;2024-02-26T08:53:36;12.97;;;10.53;;
19221;SDS011;9745;50.828;4.378;2024-02-26T08:56:02;16.10;;;10.83;;
19221;SDS011;9745;50.828;4.378;2024-02-26T08:58:28;14.07;;;11.20;;
19221;SDS011;9745;50.828;4.378;2024-02-26T09:00:54;15.27;;;11.23;;
19221;SDS011;9745;50.828;4.378;2024-02-26T09:03:20;20.60;;;11.33;;
19221;SDS011;9745;50.828;4.378;2024-02-26T09:05:46;19.33;;;11.53;;
19221;SDS011;9745;50.828;4.378;2024-02-26T09:08:12;18.10;;;11.70;;
19221;SDS011;9745;50.828;4.378;2024-02-26T09:10:39;18.03;;;11.37;;
19221;SDS011;9745;50.828;4.378;2024-02-26T09:13:05;24.83;;;11.47;;
19221;SDS011;9745;50.828;4.378;2024-02-26T09:15:31;31.30;;;11.43;;
19221;SDS011;9745;50.828;4.378;2024-02-26T09:17:57;15.43;;;11.53;;
19221;SDS011;9745;50.828;4.378;2024-02-26T09:20:23;14.67;;;10.70;;
19221;SDS011;9745;50.828;4.378;2024-02-26T09:22:49;15.70;;;10.40;;
19221;SDS011;9745;50.828;4.378;2024-02-26T09:25:16;14.17;;;10.93;;
19221;SDS011;9745;50.828;4.378;2024-02-26T09:27:42;16.17;;;10.80;;
19221;SDS011;9745;50.828;4.378;2024-02-26T09:30:09;19.50;;;11.40;;
19221;SDS011;9745;50.828;4.378;2024-02-26T09:32:35;14.27;;;10.97;;
19221;SDS011;9745;50.828;4.378;2024-02-26T09:35:01;15.53;;;10.53;;
19221;SDS011;9745;50.828;4.378;2024-02-26T09:37:27;17.17;;;9.97;;
19221;SDS011;9745;50.828;4.378;2024-02-26T09:39:53;14.07;;;10.80;;
19221;SDS011;9745;50.828;4.378;2024-02-26T09:42:19;15.90;;;10.83;;
19221;SDS011;9745;50.828;4.378;2024-02-26T09:44:45;15.03;;;10.53;;
19221;SDS011;9745;50.828;4.378;2024-02-26T09:47:11;13.70;;;10.70;;
19221;SDS011;9745;50.828;4.378;2024-02-26T09:49:40;14.33;;;10.00;;
19221;SDS011;9745;50.828;4.378;2024-02-26T09:52:07;14.90;;;10.47;;
19221;SDS011;9745;50.828;4.378;2024-02-26T09:54:36;15.13;;;10.73;;
19221;SDS011;9745;50.828;4.378;2024-02-26T09:57:03;18.37;;;11.83;;
19221;SDS011;9745;50.828;4.378;2024-02-26T09:59:39;13.47;;;10.10;;
19221;SDS011;9745;50.828;4.378;2024-02-26T10:02:06;15.07;;;10.87;;
19221;SDS011;9745;50.828;4.378;2024-02-26T10:04:35;13.20;;;10.83;;
19221;SDS011;9745;50.828;4.378;2024-02-26T10:07:01;14.47;;;10.23;;
19221;SDS011;9745;50.828;4.378;2024-02-26T10:09:28;15.90;;;9.63;;
19221;SDS011;9745;50.828;4.378;2024-02-26T10:11:55;12.73;;;9.60;;
19221;SDS011;9745;50.828;4.378;2024-02-26T10:14:21;12.13;;;9.20;;
19221;SDS011;9745;50.828;4.378;2024-02-26T10:16:47;12.47;;;10.23;;
19221;SDS011;9745;50.828;4.378;2024-02-26T10:19:24;15.33;;;9.20;;
19221;SDS011;9745;50.828;4.378;2024-02-26T10:21:53;18.43;;;10.13;;
19221;SDS011;9745;50.828;4.378;2024-02-26T10:24:19;12.73;;;8.90;;
19221;SDS011;9745;50.828;4.378;2024-02-26T10:26:46;15.50;;;9.03;;
19221;SDS011;9745;50.828;4.378;2024-02-26T10:29:12;13.17;;;9.67;;
19221;SDS011;9745;50.828;4.378;2024-02-26T10:31:41;12.73;;;9.53;;
19221;SDS011;9745;50.828;4.378;2024-02-26T10:34:07;17.23;;;9.80;;
19221;SDS011;9745;50.828;4.378;2024-02-26T10:36:34;11.10;;;8.47;;
19221;SDS011;9745;50.828;4.378;2024-02-26T10:39:03;12.37;;;8.83;;
19221;SDS011;9745;50.828;4.378;2024-02-26T10:41:30;14.80;;;9.17;;
19221;SDS011;9745;50.828;4.378;2024-02-26T10:43:58;10.30;;;8.10;;
19221;SDS011;9745;50.828;4.378;2024-02-26T10:46:25;10.03;;;7.20;;
19221;SDS011;9745;50.828;4.378;2024-02-26T10:48:52;12.70;;;8.00;;
19221;SDS011;9745;50.828;4.378;2024-02-26T10:51:22;10.70;;;7.53;;
19221;SDS011;9745;50.828;4.378;2024-02-26T10:53:50;9.57;;;7.63;;
19221;SDS011;9745;50.828;4.378;2024-02-26T10:56:19;9.37;;;7.20;;
19221;SDS011;9745;50.828;4.378;2024-02-26T10:58:45;8.80;;;6.90;;
19221;SDS011;9745;50.828;4.378;2024-02-26T11:01:12;9.73;;;7.00;;
19221;SDS011;9745;50.828;4.378;2024-02-26T11:03:38;8.13;;;6.77;;
19221;SDS011;9745;50.828;4.378;2024-02-26T11:06:05;9.03;;;6.50;;
19221;SDS011;9745;50.828;4.378;2024-02-26T11:08:31;9.90;;;6.30;;
19221;SDS011;9745;50.828;4.378;2024-02-26T11:10:57;9.27;;;6.30;;
19221;SDS011;9745;50.828;4.378;2024-02-26T11:13:26;6.70;;;5.57;;
19221;SDS011;9745;50.828;4.378;2024-02-26T11:15:53;8.27;;;5.67;;
19221;SDS011;9745;50.828;4.378;2024-02-26T11:18:20;7.17;;;5.93;;
19221;SDS011;9745;50.828;4.378;2024-02-26T11:20:48;7.13;;;5.83;;
19221;SDS011;9745;50.828;4.378;2024-02-26T11:23:14;6.63;;;5.17;;
19221;SDS011;9745;50.828;4.378;2024-02-26T11:25:40;10.60;;;5.53;;
19221;SDS011;9745;50.828;4.378;2024-02-26T11:28:11;8.50;;;5.33;;
19221;SDS011;9745;50.828;4.378;2024-02-26T11:30:38;6.20;;;5.10;;
19221;SDS011;9745;50.828;4.378;2024-02-26T11:33:08;10.17;;;5.23;;
19221;SDS011;9745;50.828;4.378;2024-02-26T11:35:37;5.07;;;4.57;;
19221;SDS011;9745;50.828;4.378;2024-02-26T11:38:03;7.33;;;5.33;;
19221;SDS011;9745;50.828;4.378;2024-02-26T11:40:31;9.20;;;5.03;;
19221;SDS011;9745;50.828;4.378;2024-02-26T11:42:57;6.63;;;5.37;;
19221;SDS011;9745;50.828;4.378;2024-02-26T11:45:57;6.40;;;4.47;;
19221;SDS011;9745;50.828;4.378;2024-02-26T11:48:24;6.70;;;5.20;;
19221;SDS011;9745;50.828;4.378;2024-02-26T11:50:52;6.73;;;5.17;;
19221;SDS011;9745;50.828;4.378;2024-02-26T11:53:22;5.80;;;4.80;;
19221;SDS011;9745;50.828;4.378;2024-02-26T11:55:48;6.07;;;4.90;;
19221;SDS011;9745;50.828;4.378;2024-02-26T11:58:14;6.43;;;4.97;;
19221;SDS011;9745;50.828;4.378;2024-02-26T12:00:40;7.80;;;5.90;;
19221;SDS011;9745;50.828;4.378;2024-02-26T12:03:06;6.07;;;5.17;;
19221;SDS011;9745;50.828;4.378;2024-02-26T12:05:33;6.43;;;5.20;;
19221;SDS011;9745;50.828;4.378;2024-02-26T12:10:32;4.90;;;4.40;;
19221;SDS011;9745;50.828;4.378;2024-02-26T12:13:13;5.30;;;4.10;;
19221;SDS011;9745;50.828;4.378;2024-02-26T12:18:06;7.23;;;5.30;;
19221;SDS011;9745;50.828;4.378;2024-02-26T12:20:32;5.90;;;5.30;;
19221;SDS011;9745;50.828;4.378;2024-02-26T12:23:00;6.17;;;5.50;;
19221;SDS011;9745;50.828;4.378;2024-02-26T12:25:28;6.23;;;4.73;;
19221;SDS011;9745;50.828;4.378;2024-02-26T12:27:54;10.30;;;5.40;;
19221;SDS011;9745;50.828;4.378;2024-02-26T12:30:21;6.40;;;4.87;;
19221;SDS011;9745;50.828;4.378;2024-02-26T12:32:47;5.90;;;5.27;;
19221;SDS011;9745;50.828;4.378;2024-02-26T12:35:14;5.27;;;4.70;;
19221;SDS011;9745;50.828;4.378;2024-02-26T12:37:41;10.23;;;5.27;;
19221;SDS011;9745;50.828;4.378;2024-02-26T12:40:08;6.80;;;5.87;;
19221;SDS011;9745;50.828;4.378;2024-02-26T12:42:34;7.00;;;5.10;;
19221;SDS011;9745;50.828;4.378;2024-02-26T12:45:07;5.53;;;4.87;;
19221;SDS011;9745;50.828;4.378;2024-02-26T12:47:39;6.13;;;5.13;;
19221;SDS011;9745;50.828;4.378;2024-02-26T12:50:06;5.43;;;4.90;;
19221;SDS011;9745;50.828;4.378;2024-02-26T12:52:39;5.70;;;5.10;;
19221;SDS011;9745;50.828;4.378;2024-02-26T12:55:06;6.83;;;5.23;;
19221;SDS011;9745;50.828;4.378;2024-02-26T12:57:36;5.80;;;4.60;;
19221;SDS011;9745;50.828;4.378;2024-02-26T13:00:03;5.17;;;4.67;;
19221;SDS011;9745;50.828;4.378;2024-02-26T13:02:29;5.10;;;4.23;;
19221;SDS011;9745;50.828;4.378;2024-02-26T13:04:56;6.23;;;4.93;;
19221;SDS011;9745;50.828;4.378;2024-02-26T13:07:24;6.53;;;4.97;;
19221;SDS011;9745;50.828;4.378;2024-02-26T13:09:50;6.00;;;5.23;;
19221;SDS011;9745;50.828;4.378;2024-02-26T13:12:17;8.47;;;5.60;;
19221;SDS011;9745;50.828;4.378;2024-02-26T13:14:43;6.63;;;5.73;;
19221;SDS011;9745;50.828;4.378;2024-02-26T13:17:09;7.60;;;5.80;;
19221;SDS011;9745;50.828;4.378;2024-02-26T13:19:35;8.87;;;5.83;;
19221;SDS011;9745;50.828;4.378;2024-02-26T13:22:07;7.80;;;5.37;;
19221;SDS011;9745;50.828;4.378;2024-02-26T13:24:34;7.27;;;5.77;;
19221;SDS011;9745;50.828;4.378;2024-02-26T13:27:00;9.23;;;6.30;;
19221;SDS011;9745;50.828;4.378;2024-02-26T13:29:28;6.97;;;6.00;;
19221;SDS011;9745;50.828;4.378;2024-02-26T13:31:55;10.10;;;6.57;;
19221;SDS011;9745;50.828;4.378;2024-02-26T13:34:25;8.33;;;6.30;;
19221;SDS011;9745;50.828;4.378;2024-02-26T13:36:51;8.57;;;6.77;;
19221;SDS011;9745;50.828;4.378;2024-02-26T13:39:24;9.20;;;6.77;;
19221;SDS011;9745;50.828;4.378;2024-02-26T13:41:51;8.63;;;7.43;;
19221;SDS011;9745;50.828;4.378;2024-02-26T13:44:17;10.20;;;7.23;;
19221;SDS011;9745;50.828;4.378;2024-02-26T13:46:43;9.00;;;7.47;;
19221;SDS011;9745;50.828;4.378;2024-02-26T13:49:09;9.20;;;7.43;;
19221;SDS011;9745;50.828;4.378;2024-02-26T13:51:38;12.20;;;8.30;;
19221;SDS011;9745;50.828;4.378;2024-02-26T13:54:05;11.17;;;8.37;;
19221;SDS011;9745;50.828;4.378;2024-02-26T13:56:31;10.07;;;8.77;;
19221;SDS011;9745;50.828;4.378;2024-02-26T13:58:57;10.67;;;8.10;;
19221;SDS011;9745;50.828;4.378;2024-02-26T14:01:24;12.13;;;9.30;;
19221;SDS011;9745;50.828;4.378;2024-02-26T14:03:50;11.13;;;8.93;;
19221;SDS011;9745;50.828;4.378;2024-02-26T14:06:16;14.50;;;9.60;;
19221;SDS011;9745;50.828;4.378;2024-02-26T14:08:42;12.90;;;9.73;;
19221;SDS011;9745;50.828;4.378;2024-02-26T14:11:08;15.20;;;10.07;;
19221;SDS011;9745;50.828;4.378;2024-02-26T14:13:34;14.43;;;10.13;;
19221;SDS011;9745;50.828;4.378;2024-02-26T14:16:00;13.07;;;10.00;;
19221;SDS011;9745;50.828;4.378;2024-02-26T14:18:26;14.00;;;9.57;;
19221;SDS011;9745;50.828;4.378;2024-02-26T14:20:52;11.83;;;8.93;;
19221;SDS011;9745;50.828;4.378;2024-02-26T14:23:18;12.57;;;9.13;;
19221;SDS011;9745;50.828;4.378;2024-02-26T14:25:44;14.00;;;9.33;;
19221;SDS011;9745;50.828;4.378;2024-02-26T14:28:10;12.27;;;9.40;;
19221;SDS011;9745;50.828;4.378;2024-02-26T14:30:36;13.83;;;10.37;;
19221;SDS011;9745;50.828;4.378;2024-02-26T14:33:03;13.60;;;9.90;;
19221;SDS011;9745;50.828;4.378;2024-02-26T14:35:29;14.27;;;10.07;;
19221;SDS011;9745;50.828;4.378;2024-02-26T14:37:54;15.43;;;10.73;;
19221;SDS011;9745;50.828;4.378;2024-02-26T14:40:25;16.07;;;9.57;;
19221;SDS011;9745;50.828;4.378;2024-02-26T14:42:51;16.10;;;10.63;;
19221;SDS011;9745;50.828;4.378;2024-02-26T14:45:17;13.83;;;9.90;;
19221;SDS011;9745;50.828;4.378;2024-02-26T14:47:43;15.13;;;10.07;;
19221;SDS011;9745;50.828;4.378;2024-02-26T14:50:09;15.20;;;10.23;;
19221;SDS011;9745;50.828;4.378;2024-02-26T14:52:36;14.93;;;10.13;;
19221;SDS011;9745;50.828;4.378;2024-02-26T14:55:02;15.67;;;10.77;;